Time;durP1;ratioP1;P1;durP2;ratioP2;P2;SDS_P1;SDS_P2;PMS_P1;PMS_P2;Temp;Humidity;BMP_temperature;BMP_pressure;BME280_temperature;BME280_humidity;BME280_pressure;Samples;Min_cycle;Max_cycle;Signal;HPM_P1;HPM_P2
2023/05/31 00:02:07;;;;;;;6.20;3.90;;;;;;;;;;4994197;28;20083;-76
2023/05/31 00:04:34;;;;;;;8.52;3.45;;;;;;;;;;4975753;28;20047;-76
2023/05/31 00:07:01;;;;;;;6.40;3.28;;;;;;;;;;4976164;28;20121;-77
2023/05/31 00:09:27;;;;;;;5.35;2.92;;;;;;;;;;5002456;28;20065;-77
2023/05/31 00:11:54;;;;;;;5.65;2.95;;;;;;;;;;5014835;28;20165;-75
2023/05/31 00:14:22;;;;;;;5.43;3.00;;;;;;;;;;5014612;28;20048;-76
2023/05/31 00:16:49;;;;;;;4.55;2.95;;;;;;;;;;5014624;28;20057;-77
2023/05/31 00:19:15;;;;;;;6.50;3.22;;;;;;;;;;5008906;28;20489;-76
2023/05/31 00:21:44;;;;;;;5.00;3.20;;;;;;;;;;5010611;28;20136;-76
2023/05/31 00:24:11;;;;;;;12.23;4.07;;;;;;;;;;5014190;28;20523;-76
2023/05/31 00:26:38;;;;;;;9.68;2.97;;;;;;;;;;4999053;22;20078;-77
2023/05/31 00:29:04;;;;;;;7.13;3.67;;;;;;;;;;4983547;28;20061;-77
2023/05/31 00:31:32;;;;;;;5.78;3.17;;;;;;;;;;4982936;28;20442;-76
2023/05/31 00:33:59;;;;;;;6.88;3.15;;;;;;;;;;4982935;28;20549;-75
2023/05/31 00:36:26;;;;;;;9.63;3.13;;;;;;;;;;4988946;28;20153;-77
2023/05/31 00:38:52;;;;;;;6.85;2.85;;;;;;;;;;4992040;28;20047;-77
2023/05/31 00:41:19;;;;;;;5.60;2.53;;;;;;;;;;4990975;28;20057;-77
2023/05/31 00:43:46;;;;;;;5.10;2.42;;;;;;;;;;4990239;28;20144;-76
2023/05/31 00:46:26;;;;;;;5.22;3.00;;;;;;;;;;4990258;28;20050;-76
2023/05/31 00:48:55;;;;;;;6.88;2.90;;;;;;;;;;4989361;28;20394;-76
2023/05/31 00:51:22;;;;;;;5.20;3.00;;;;;;;;;;4989775;28;20054;-75
2023/05/31 00:53:49;;;;;;;5.15;2.80;;;;;;;;;;4989748;28;21557;-77
2023/05/31 00:56:16;;;;;;;6.22;2.80;;;;;;;;;;4990653;28;20497;-76
2023/05/31 00:58:45;;;;;;;5.65;2.72;;;;;;;;;;4990301;28;20046;-76
2023/05/31 01:01:13;;;;;;;5.72;2.58;;;;;;;;;;4990273;28;20417;-76
2023/05/31 01:03:40;;;;;;;6.03;3.58;;;;;;;;;;4989644;28;20057;-75
2023/05/31 01:06:08;;;;;;;5.72;2.70;;;;;;;;;;4990331;28;20409;-77
2023/05/31 01:08:36;;;;;;;6.18;2.67;;;;;;;;;;4990434;28;20104;-77
2023/05/31 01:11:10;;;;;;;5.70;2.50;;;;;;;;;;4990869;28;20042;-76
2023/05/31 01:13:43;;;;;;;5.15;2.80;;;;;;;;;;4992823;28;20136;-75
2023/05/31 01:16:15;;;;;;;5.57;2.70;;;;;;;;;;5000203;28;20054;-77
2023/05/31 01:18:46;;;;;;;6.05;2.70;;;;;;;;;;4988958;28;20042;-76
2023/05/31 01:21:19;;;;;;;4.75;2.30;;;;;;;;;;4989700;28;20065;-76
2023/05/31 01:24:00;;;;;;;4.93;2.25;;;;;;;;;;4989881;28;20054;-76
2023/05/31 01:26:36;;;;;;;5.25;2.65;;;;;;;;;;4989654;28;20046;-74
2023/05/31 01:29:06;;;;;;;5.60;2.67;;;;;;;;;;4989612;28;20042;-76
2023/05/31 01:31:35;;;;;;;;;;;;;;;;;;4989529;28;20046;-75
2023/05/31 01:34:03;;;;;;;4.70;2.45;;;;;;;;;;4989461;28;20378;-75
2023/05/31 01:36:30;;;;;;;5.60;2.50;;;;;;;;;;4988761;28;20403;-75
2023/05/31 01:38:57;;;;;;;6.05;2.47;;;;;;;;;;4989170;28;20050;-76
2023/05/31 01:41:25;;;;;;;6.03;2.85;;;;;;;;;;4988958;28;20056;-76
2023/05/31 01:43:54;;;;;;;5.82;2.78;;;;;;;;;;4989015;28;21568;-76
2023/05/31 01:46:21;;;;;;;7.82;2.90;;;;;;;;;;4989819;28;20043;-76
2023/05/31 01:48:49;;;;;;;4.75;2.70;;;;;;;;;;4988100;28;20038;-75
2023/05/31 01:51:16;;;;;;;6.45;3.00;;;;;;;;;;4990188;28;20058;-75
2023/05/31 01:53:43;;;;;;;5.50;2.70;;;;;;;;;;4989567;28;20066;-76
2023/05/31 01:56:11;;;;;;;4.97;2.45;;;;;;;;;;4989890;28;20050;-76
2023/05/31 01:58:41;;;;;;;5.97;2.58;;;;;;;;;;4988825;28;20042;-74
2023/05/31 02:01:11;;;;;;;5.22;2.40;;;;;;;;;;4989407;28;20141;-75
2023/05/31 02:03:39;;;;;;;6.22;2.85;;;;;;;;;;4990578;28;20056;-75
2023/05/31 02:06:06;;;;;;;4.93;2.55;;;;;;;;;;4990291;28;20046;-75
2023/05/31 02:08:33;;;;;;;5.20;2.40;;;;;;;;;;4990532;28;20055;-75
2023/05/31 02:10:59;;;;;;;4.47;2.50;;;;;;;;;;4989005;28;20521;-74
2023/05/31 02:13:28;;;;;;;6.97;3.13;;;;;;;;;;4989297;28;20394;-73
2023/05/31 02:15:55;;;;;;;4.55;2.38;;;;;;;;;;4989024;28;20064;-74
2023/05/31 02:18:26;;;;;;;6.63;3.03;;;;;;;;;;4988508;28;20054;-75
2023/05/31 02:20:52;;;;;;;;;;;;;;;;;;4989573;28;20151;-75
2023/05/31 02:23:19;;;;;;;8.02;2.85;;;;;;;;;;4989381;28;20028;-75
2023/05/31 02:25:46;;;;;;;5.70;2.47;;;;;;;;;;4988581;28;20149;-76
2023/05/31 02:28:13;;;;;;;5.72;2.53;;;;;;;;;;4989329;28;20054;-75
2023/05/31 02:30:41;;;;;;;4.93;2.30;;;;;;;;;;4988613;28;20098;-77
2023/05/31 02:33:08;;;;;;;5.15;2.45;;;;;;;;;;4989498;28;20061;-75
2023/05/31 02:35:36;;;;;;;5.97;2.50;;;;;;;;;;4989005;28;20046;-76
2023/05/31 02:38:03;;;;;;;6.30;2.35;;;;;;;;;;4988771;28;20156;-76
2023/05/31 02:40:29;;;;;;;5.18;2.67;;;;;;;;;;4988823;28;20042;-77
2023/05/31 02:42:56;;;;;;;6.90;3.47;;;;;;;;;;4989214;28;20061;-75
2023/05/31 02:45:22;;;;;;;6.88;3.85;;;;;;;;;;4989229;28;20097;-76
2023/05/31 02:47:49;;;;;;;6.10;2.83;;;;;;;;;;4989630;28;20084;-75
2023/05/31 02:50:15;;;;;;;6.13;2.10;;;;;;;;;;4992779;28;20053;-77
2023/05/31 02:52:43;;;;;;;5.10;2.67;;;;;;;;;;4992162;28;20045;-76
2023/05/31 02:55:10;;;;;;;5.40;2.75;;;;;;;;;;4990162;28;20049;-76
2023/05/31 02:57:37;;;;;;;4.88;2.15;;;;;;;;;;4989988;28;20038;-77
2023/05/31 03:00:11;;;;;;;4.35;2.10;;;;;;;;;;4991362;28;20221;-77
2023/05/31 03:02:37;;;;;;;5.10;2.10;;;;;;;;;;4993089;28;20070;-77
2023/05/31 03:05:05;;;;;;;6.57;2.67;;;;;;;;;;4993089;28;20141;-76
2023/05/31 03:07:32;;;;;;;7.35;2.55;;;;;;;;;;4992809;28;20491;-75
2023/05/31 03:10:00;;;;;;;6.00;2.83;;;;;;;;;;4992098;28;20533;-75
2023/05/31 03:12:27;;;;;;;6.47;2.95;;;;;;;;;;4991889;28;20045;-76
2023/05/31 03:14:54;;;;;;;5.47;2.33;;;;;;;;;;4991941;28;20060;-76
2023/05/31 03:17:21;;;;;;;4.90;2.47;;;;;;;;;;4992179;28;20449;-76
2023/05/31 03:19:47;;;;;;;6.40;2.60;;;;;;;;;;4992218;28;20073;-76
2023/05/31 03:22:14;;;;;;;4.10;2.30;;;;;;;;;;4992127;28;20068;-76
2023/05/31 03:24:41;;;;;;;5.13;2.40;;;;;;;;;;4990932;28;20056;-74
2023/05/31 03:27:09;;;;;;;4.90;2.38;;;;;;;;;;4991803;28;20104;-76
2023/05/31 03:29:38;;;;;;;6.68;2.60;;;;;;;;;;4990996;28;20073;-77
2023/05/31 03:32:06;;;;;;;4.95;2.50;;;;;;;;;;4992130;28;20050;-76
2023/05/31 03:34:32;;;;;;;4.75;2.63;;;;;;;;;;4991963;28;20053;-76
2023/05/31 03:36:59;;;;;;;5.55;2.78;;;;;;;;;;4993832;28;20066;-73
2023/05/31 03:39:26;;;;;;;5.30;2.30;;;;;;;;;;4994367;28;20144;-74
2023/05/31 03:41:52;;;;;;;5.60;2.60;;;;;;;;;;4995531;28;20069;-75
2023/05/31 03:44:20;;;;;;;5.38;2.50;;;;;;;;;;4995015;28;20046;-76
2023/05/31 03:46:47;;;;;;;6.30;2.72;;;;;;;;;;4996568;28;20121;-75
2023/05/31 03:49:14;;;;;;;6.97;2.78;;;;;;;;;;4996275;28;20058;-74
2023/05/31 03:51:41;;;;;;;4.97;2.85;;;;;;;;;;4992503;28;20046;-75
2023/05/31 03:54:07;;;;;;;5.68;2.40;;;;;;;;;;4994134;28;20077;-78
2023/05/31 03:56:34;;;;;;;7.80;3.10;;;;;;;;;;4994427;28;20066;-78
2023/05/31 03:59:00;;;;;;;5.43;2.70;;;;;;;;;;4992046;28;20049;-74
2023/05/31 04:01:28;;;;;;;6.13;2.58;;;;;;;;;;4994157;28;20046;-74
2023/05/31 04:03:55;;;;;;;5.05;2.97;;;;;;;;;;4992960;28;20441;-76
2023/05/31 04:06:22;;;;;;;7.95;2.70;;;;;;;;;;4992195;28;20621;-77
2023/05/31 04:08:48;;;;;;;5.78;2.72;;;;;;;;;;4991750;28;20054;-76
2023/05/31 04:11:15;;;;;;;6.70;2.60;;;;;;;;;;4990444;28;20489;-76
2023/05/31 04:13:42;;;;;;;5.68;2.92;;;;;;;;;;4991583;28;20078;-77
2023/05/31 04:16:09;;;;;;;5.60;2.60;;;;;;;;;;4991577;28;20484;-78
2023/05/31 04:18:36;;;;;;;7.53;3.08;;;;;;;;;;4991055;28;20497;-75
2023/05/31 04:21:03;;;;;;;7.07;2.65;;;;;;;;;;4991645;28;20067;-76
2023/05/31 04:23:30;;;;;;;5.43;2.40;;;;;;;;;;4991456;28;20060;-75
2023/05/31 04:25:57;;;;;;;6.65;2.90;;;;;;;;;;4991172;28;20137;-75
2023/05/31 04:28:24;;;;;;;6.78;2.83;;;;;;;;;;4991078;28;20049;-75
2023/05/31 04:30:51;;;;;;;6.47;2.83;;;;;;;;;;4991212;28;20042;-76
2023/05/31 04:33:19;;;;;;;8.05;2.60;;;;;;;;;;4990874;28;20065;-76
2023/05/31 04:35:48;;;;;;;5.03;2.50;;;;;;;;;;4991600;28;20042;-77
2023/05/31 04:38:16;;;;;;;5.10;2.60;;;;;;;;;;4992063;28;20046;-76
2023/05/31 04:40:42;;;;;;;7.88;2.70;;;;;;;;;;4991933;28;20050;-76
2023/05/31 04:43:09;;;;;;;5.90;2.95;;;;;;;;;;4993287;28;20042;-75
2023/05/31 04:45:36;;;;;;;6.40;2.95;;;;;;;;;;4998152;28;20038;-76
2023/05/31 04:48:03;;;;;;;6.22;2.92;;;;;;;;;;4994539;28;20042;-75
2023/05/31 04:50:29;;;;;;;7.63;2.90;;;;;;;;;;4992874;28;20409;-76
2023/05/31 04:52:57;;;;;;;6.85;2.60;;;;;;;;;;4992068;28;20046;-76
2023/05/31 04:55:24;;;;;;;6.03;2.60;;;;;;;;;;4991149;28;20070;-77
2023/05/31 04:57:51;;;;;;;6.20;3.17;;;;;;;;;;4991900;28;20046;-76
2023/05/31 05:00:19;;;;;;;7.03;2.60;;;;;;;;;;4992813;28;20474;-76
2023/05/31 05:02:46;;;;;;;5.53;2.65;;;;;;;;;;4995194;28;20046;-76
2023/05/31 05:05:13;;;;;;;6.85;2.65;;;;;;;;;;4994412;28;20446;-77
2023/05/31 05:07:39;;;;;;;5.90;2.40;;;;;;;;;;4994013;28;20421;-77
2023/05/31 05:10:08;;;;;;;6.32;2.88;;;;;;;;;;4993664;28;20047;-77
2023/05/31 05:12:35;;;;;;;6.82;3.17;;;;;;;;;;4993816;28;20052;-77
2023/05/31 05:15:01;;;;;;;7.47;2.78;;;;;;;;;;4993579;28;20074;-76
2023/05/31 05:17:28;;;;;;;6.85;2.80;;;;;;;;;;4993736;28;20525;-75
2023/05/31 05:19:55;;;;;;;7.40;3.10;;;;;;;;;;4993427;28;20133;-76
2023/05/31 05:22:21;;;;;;;5.82;2.85;;;;;;;;;;4993892;28;20085;-76
2023/05/31 05:24:48;;;;;;;9.07;3.47;;;;;;;;;;4993663;28;20054;-76
2023/05/31 05:27:16;;;;;;;7.95;2.85;;;;;;;;;;4993835;28;20057;-76
2023/05/31 05:29:43;;;;;;;6.13;2.97;;;;;;;;;;4993013;28;20050;-77
2023/05/31 05:32:09;;;;;;;6.68;3.17;;;;;;;;;;4992980;28;20081;-77
2023/05/31 05:34:36;;;;;;;6.35;3.10;;;;;;;;;;4993125;28;20096;-75
2023/05/31 05:37:02;;;;;;;10.23;3.00;;;;;;;;;;4993496;28;20057;-76
2023/05/31 05:39:29;;;;;;;6.13;2.70;;;;;;;;;;4993296;28;20129;-77
2023/05/31 05:41:56;;;;;;;7.00;3.00;;;;;;;;;;4993823;28;20065;-76
2023/05/31 05:44:24;;;;;;;5.50;2.80;;;;;;;;;;4993315;28;20129;-75
2023/05/31 05:46:51;;;;;;;8.25;3.33;;;;;;;;;;4994395;28;20046;-76
2023/05/31 05:49:17;;;;;;;5.97;3.10;;;;;;;;;;4994332;28;20056;-77
2023/05/31 05:51:44;;;;;;;5.57;2.85;;;;;;;;;;4994741;28;20089;-77
2023/05/31 05:54:10;;;;;;;5.53;2.60;;;;;;;;;;4994562;28;20385;-76
2023/05/31 05:56:37;;;;;;;6.75;2.80;;;;;;;;;;4994141;28;20190;-77
2023/05/31 05:59:04;;;;;;;4.30;2.15;;;;;;;;;;4993848;28;20054;-77
2023/05/31 06:01:32;;;;;;;5.95;2.85;;;;;;;;;;4993834;28;20129;-77
2023/05/31 06:03:58;;;;;;;9.85;2.60;;;;;;;;;;4994152;28;20133;-78
2023/05/31 06:06:26;;;;;;;5.05;2.72;;;;;;;;;;4994377;28;20132;-78
2023/05/31 06:08:52;;;;;;;7.13;2.92;;;;;;;;;;4993450;28;20094;-77
2023/05/31 06:11:19;;;;;;;5.32;2.78;;;;;;;;;;4993785;28;20038;-77
2023/05/31 06:13:46;;;;;;;7.22;3.03;;;;;;;;;;4993761;28;20050;-77
2023/05/31 06:16:14;;;;;;;5.57;2.70;;;;;;;;;;4993382;28;20142;-77
2023/05/31 06:18:42;;;;;;;5.78;3.05;;;;;;;;;;4994047;28;20069;-78
2023/05/31 06:21:09;;;;;;;5.93;2.90;;;;;;;;;;4993411;28;20573;-77
2023/05/31 06:23:35;;;;;;;7.85;3.17;;;;;;;;;;4993666;28;20050;-77
2023/05/31 06:26:02;;;;;;;6.90;2.90;;;;;;;;;;4993606;28;20054;-77
2023/05/31 06:28:29;;;;;;;8.35;3.50;;;;;;;;;;5011687;22;20145;-76
2023/05/31 06:30:56;;;;;;;5.78;3.15;;;;;;;;;;4982719;28;20169;-75
2023/05/31 06:33:23;;;;;;;8.93;3.40;;;;;;;;;;4981844;28;20043;-75
2023/05/31 06:35:51;;;;;;;7.05;2.90;;;;;;;;;;4985825;28;20049;-76
2023/05/31 06:38:17;;;;;;;7.63;3.22;;;;;;;;;;4989263;28;20468;-76
2023/05/31 06:40:45;;;;;;;7.85;2.75;;;;;;;;;;4989814;28;20153;-77
2023/05/31 06:43:11;;;;;;;5.63;2.70;;;;;;;;;;4990701;28;20073;-77
2023/05/31 06:45:41;;;;;;;8.52;3.50;;;;;;;;;;4989940;28;20145;-76
2023/05/31 06:48:08;;;;;;;7.10;3.33;;;;;;;;;;4988698;28;20065;-77
2023/05/31 06:50:35;;;;;;;6.65;2.85;;;;;;;;;;4984669;28;20281;-76
2023/05/31 06:53:04;;;;;;;8.23;3.13;;;;;;;;;;4993722;28;20138;-76
2023/05/31 06:55:31;;;;;;;6.97;2.88;;;;;;;;;;4992509;28;20077;-76
2023/05/31 06:57:57;;;;;;;5.63;2.70;;;;;;;;;;4988965;28;20046;-75
2023/05/31 07:00:24;;;;;;;5.97;2.63;;;;;;;;;;4987466;28;20051;-76
2023/05/31 07:02:51;;;;;;;6.68;3.50;;;;;;;;;;4994101;28;20485;-76
2023/05/31 07:05:17;;;;;;;7.60;3.25;;;;;;;;;;4987619;28;20129;-76
2023/05/31 07:07:44;;;;;;;5.25;3.13;;;;;;;;;;4989754;28;20050;-77
2023/05/31 07:10:12;;;;;;;7.35;3.40;;;;;;;;;;4990755;28;20049;-76
2023/05/31 07:12:39;;;;;;;6.53;2.90;;;;;;;;;;5003722;28;20054;-79
2023/05/31 07:15:08;;;;;;;5.88;2.75;;;;;;;;;;4993098;28;20042;-79
2023/05/31 07:17:35;;;;;;;5.93;2.90;;;;;;;;;;4989299;28;20402;-76
2023/05/31 07:20:03;;;;;;;6.68;3.10;;;;;;;;;;4982154;28;20047;-76
2023/05/31 07:22:30;;;;;;;7.95;3.30;;;;;;;;;;4991335;28;20046;-77
2023/05/31 07:24:57;;;;;;;9.73;3.00;;;;;;;;;;4997816;28;20056;-78
2023/05/31 07:27:25;;;;;;;7.15;2.90;;;;;;;;;;4997401;28;20129;-78
2023/05/31 07:29:51;;;;;;;5.82;3.30;;;;;;;;;;4980242;28;20437;-78
2023/05/31 07:32:18;;;;;;;5.95;3.20;;;;;;;;;;4978935;28;20134;-79
2023/05/31 07:34:45;;;;;;;5.55;2.80;;;;;;;;;;4979439;28;20121;-80
2023/05/31 07:37:11;;;;;;;5.78;3.40;;;;;;;;;;4980792;28;20047;-77
2023/05/31 07:39:38;;;;;;;7.47;3.08;;;;;;;;;;4978151;28;20046;-77
2023/05/31 07:42:05;;;;;;;5.65;2.95;;;;;;;;;;4979898;28;20489;-78
2023/05/31 07:44:33;;;;;;;7.43;2.80;;;;;;;;;;4978650;28;20135;-78
2023/05/31 07:47:00;;;;;;;7.35;3.50;;;;;;;;;;4975856;28;20073;-77
2023/05/31 07:49:27;;;;;;;10.05;3.58;;;;;;;;;;4975362;28;20135;-77
2023/05/31 07:51:53;;;;;;;6.20;2.83;;;;;;;;;;4975617;28;20133;-77
2023/05/31 07:54:20;;;;;;;7.53;3.25;;;;;;;;;;4975819;28;20213;-78
2023/05/31 07:56:47;;;;;;;8.75;3.25;;;;;;;;;;4976319;28;20047;-78
2023/05/31 07:59:13;;;;;;;7.68;3.30;;;;;;;;;;4974783;28;20470;-78
2023/05/31 08:01:43;;;;;;;6.13;2.80;;;;;;;;;;4975531;28;20101;-78
2023/05/31 08:04:11;;;;;;;6.35;3.03;;;;;;;;;;4977362;28;20126;-77
2023/05/31 08:06:38;;;;;;;9.73;2.95;;;;;;;;;;4983554;28;20460;-79
2023/05/31 08:09:06;;;;;;;8.93;3.10;;;;;;;;;;4982082;28;20111;-82
2023/05/31 08:11:35;;;;;;;7.03;3.42;;;;;;;;;;4981418;28;20465;-83
2023/05/31 08:14:01;;;;;;;8.98;4.25;;;;;;;;;;4979979;28;20042;-81
2023/05/31 08:16:28;;;;;;;5.80;3.00;;;;;;;;;;4974613;28;20586;-77
2023/05/31 08:18:56;;;;;;;9.50;3.67;;;;;;;;;;4974593;28;20123;-76
2023/05/31 08:21:23;;;;;;;9.00;4.93;;;;;;;;;;4973679;28;20130;-76
2023/05/31 08:23:50;;;;;;;8.70;4.03;;;;;;;;;;4973769;28;20086;-78
2023/05/31 08:26:16;;;;;;;6.13;3.05;;;;;;;;;;4974016;28;20122;-81
2023/05/31 08:28:43;;;;;;;9.27;3.10;;;;;;;;;;4974166;28;20053;-83
2023/05/31 08:31:10;;;;;;;8.75;3.33;;;;;;;;;;4997487;28;20135;-79
2023/05/31 08:33:36;;;;;;;5.38;2.78;;;;;;;;;;4980486;28;20043;-82
2023/05/31 08:36:05;;;;;;;9.45;3.67;;;;;;;;;;4996167;28;20129;-80
2023/05/31 08:38:34;;;;;;;7.07;2.80;;;;;;;;;;4992615;28;20536;-76
2023/05/31 08:41:03;;;;;;;7.28;3.10;;;;;;;;;;4979635;28;20043;-77
2023/05/31 08:43:30;;;;;;;6.25;2.88;;;;;;;;;;4992290;28;20101;-76
2023/05/31 08:45:57;;;;;;;7.93;3.10;;;;;;;;;;4982546;28;20655;-75
2023/05/31 08:48:29;;;;;;;7.05;3.00;;;;;;;;;;4972097;28;20047;-77
2023/05/31 08:50:57;;;;;;;6.55;2.90;;;;;;;;;;4972597;28;20513;-76
2023/05/31 08:53:26;;;;;;;8.75;3.38;;;;;;;;;;4976216;28;20141;-76
2023/05/31 08:55:54;;;;;;;7.00;3.05;;;;;;;;;;4992089;28;20046;-76
2023/05/31 08:58:21;;;;;;;5.20;2.70;;;;;;;;;;4985126;28;20039;-76
2023/05/31 09:00:49;;;;;;;7.63;3.17;;;;;;;;;;4985245;28;20491;-77
2023/05/31 09:03:16;;;;;;;6.53;2.70;;;;;;;;;;4981312;28;20057;-77
2023/05/31 09:05:43;;;;;;;7.90;3.05;;;;;;;;;;4991812;28;20497;-77
2023/05/31 09:08:11;;;;;;;5.72;2.90;;;;;;;;;;4991622;28;20046;-76
2023/05/31 09:10:40;;;;;;;7.95;2.95;;;;;;;;;;4991458;28;20044;-75
2023/05/31 09:13:07;;;;;;;7.03;3.13;;;;;;;;;;4991682;28;20053;-76
2023/05/31 09:15:37;;;;;;;7.38;2.72;;;;;;;;;;4990478;28;20042;-76
2023/05/31 09:18:14;;;;;;;5.80;2.70;;;;;;;;;;4971825;28;20131;-77
2023/05/31 09:20:41;;;;;;;6.93;3.58;;;;;;;;;;4972174;28;20574;-77
2023/05/31 09:23:08;;;;;;;9.30;3.58;;;;;;;;;;4972478;28;20094;-77
2023/05/31 09:25:47;;;;;;;6.70;3.03;;;;;;;;;;4973065;28;20137;-77
2023/05/31 09:28:15;;;;;;;6.25;2.85;;;;;;;;;;4972264;28;20130;-77
2023/05/31 09:30:42;;;;;;;6.78;2.88;;;;;;;;;;4972153;28;20085;-76
2023/05/31 09:33:10;;;;;;;7.63;2.78;;;;;;;;;;4971730;28;20082;-76
2023/05/31 09:35:36;;;;;;;5.85;3.10;;;;;;;;;;4972204;28;20052;-76
2023/05/31 09:38:07;;;;;;;5.75;2.67;;;;;;;;;;4980134;28;20112;-76
2023/05/31 09:40:34;;;;;;;6.22;3.38;;;;;;;;;;4990873;28;20501;-77
2023/05/31 09:43:02;;;;;;;6.15;2.80;;;;;;;;;;4991431;28;20432;-77
2023/05/31 09:45:29;;;;;;;5.43;3.05;;;;;;;;;;4991284;28;20141;-76
2023/05/31 09:47:56;;;;;;;6.68;2.42;;;;;;;;;;4991209;28;20473;-76
2023/05/31 09:50:24;;;;;;;6.35;3.00;;;;;;;;;;4986887;28;20045;-77
2023/05/31 09:52:56;;;;;;;6.60;3.13;;;;;;;;;;4952450;29;20051;-77
2023/05/31 09:55:23;;;;;;;7.57;3.22;;;;;;;;;;4952606;29;20049;-76
2023/05/31 09:57:53;;;;;;;6.47;3.40;;;;;;;;;;4970185;28;20443;-76
2023/05/31 10:00:21;;;;;;;7.25;3.58;;;;;;;;;;4974973;28;20425;-77
2023/05/31 10:02:50;;;;;;;6.03;3.20;;;;;;;;;;4972182;28;20047;-77
2023/05/31 10:05:17;;;;;;;6.35;2.88;;;;;;;;;;4971835;28;20510;-77
2023/05/31 10:07:46;;;;;;;8.40;2.83;;;;;;;;;;4984575;28;20050;-77
2023/05/31 10:10:13;;;;;;;6.38;3.45;;;;;;;;;;4979174;28;20077;-77
2023/05/31 10:12:51;;;;;;;7.95;3.30;;;;;;;;;;4971466;28;20054;-77
2023/05/31 10:15:22;;;;;;;5.60;2.72;;;;;;;;;;4978147;28;20511;-77
2023/05/31 10:17:56;;;;;;;5.97;3.03;;;;;;;;;;4990551;28;20052;-76
2023/05/31 10:20:25;;;;;;;5.85;3.20;;;;;;;;;;4985790;28;20421;-77
2023/05/31 10:22:55;;;;;;;6.00;2.97;;;;;;;;;;4990465;28;20038;-76
2023/05/31 10:25:31;;;;;;;8.10;3.15;;;;;;;;;;4982910;28;20432;-75
2023/05/31 10:28:02;;;;;;;8.48;3.38;;;;;;;;;;4988296;28;20054;-76
2023/05/31 10:30:32;;;;;;;7.45;2.92;;;;;;;;;;4990085;28;20047;-75
2023/05/31 10:33:06;;;;;;;4.85;2.60;;;;;;;;;;4983982;28;20121;-75
2023/05/31 10:35:33;;;;;;;7.15;3.45;;;;;;;;;;4985408;28;20046;-76
2023/05/31 10:38:01;;;;;;;6.63;3.42;;;;;;;;;;4985504;28;20054;-75
2023/05/31 10:40:34;;;;;;;7.53;2.95;;;;;;;;;;4979409;28;20122;-75
2023/05/31 10:43:08;;;;;;;6.35;3.08;;;;;;;;;;4971946;28;20509;-76
2023/05/31 10:45:41;;;;;;;8.35;3.63;;;;;;;;;;4951913;29;20051;-75
2023/05/31 10:48:15;;;;;;;8.13;3.40;;;;;;;;;;4960967;28;20109;-75
2023/05/31 10:50:57;;;;;;;7.97;3.30;;;;;;;;;;4969242;28;20074;-75
2023/05/31 10:53:29;;;;;;;5.95;2.72;;;;;;;;;;4987959;28;20082;-75
2023/05/31 10:56:02;;;;;;;5.63;2.72;;;;;;;;;;4971331;28;20054;-75
2023/05/31 10:58:31;;;;;;;7.88;3.50;;;;;;;;;;4970590;28;20051;-75
2023/05/31 11:01:02;;;;;;;6.65;3.10;;;;;;;;;;4971720;28;20126;-74
2023/05/31 11:03:31;;;;;;;5.38;3.20;;;;;;;;;;4970502;28;20054;-75
2023/05/31 11:06:00;;;;;;;8.32;3.28;;;;;;;;;;4970687;28;20049;-75
2023/05/31 11:08:27;;;;;;;8.18;3.58;;;;;;;;;;4968659;28;20050;-75
2023/05/31 11:11:27;;;;;;;6.88;3.38;;;;;;;;;;4970346;28;20405;-75
2023/05/31 11:13:58;;;;;;;7.95;3.90;;;;;;;;;;4971508;28;20050;-76
2023/05/31 11:16:25;;;;;;;6.90;3.70;;;;;;;;;;4988602;28;20038;-75
2023/05/31 11:19:05;;;;;;;8.32;3.78;;;;;;;;;;4987465;28;20042;-76
2023/05/31 11:21:51;;;;;;;7.97;3.63;;;;;;;;;;4975303;28;20109;-75
2023/05/31 11:24:31;;;;;;;6.18;3.50;;;;;;;;;;4967175;28;20395;-74
2023/05/31 11:27:00;;;;;;;6.75;3.67;;;;;;;;;;4974386;28;20502;-75
2023/05/31 11:29:47;;;;;;;8.70;4.05;;;;;;;;;;4974134;28;20054;-76
2023/05/31 11:32:14;;;;;;;5.53;3.55;;;;;;;;;;4977995;28;20043;-75
2023/05/31 11:34:53;;;;;;;7.80;3.90;;;;;;;;;;4993404;28;20047;-76
2023/05/31 11:37:21;;;;;;;9.02;3.80;;;;;;;;;;4993254;28;20500;-75
2023/05/31 11:39:47;;;;;;;8.20;4.47;;;;;;;;;;4985560;28;20051;-75
2023/05/31 11:42:15;;;;;;;9.07;3.95;;;;;;;;;;4973963;28;20046;-72
2023/05/31 11:44:43;;;;;;;9.35;4.60;;;;;;;;;;4973908;28;20494;-74
2023/05/31 11:47:13;;;;;;;9.75;4.03;;;;;;;;;;4973712;28;20047;-75
2023/05/31 11:49:40;;;;;;;5.72;3.95;;;;;;;;;;4980686;28;20050;-77
2023/05/31 11:52:08;;;;;;;8.35;4.80;;;;;;;;;;4988819;28;20267;-76
2023/05/31 11:54:36;;;;;;;7.82;4.15;;;;;;;;;;4990985;28;20133;-77
2023/05/31 11:57:03;;;;;;;6.60;3.92;;;;;;;;;;4973674;28;20047;-76
2023/05/31 11:59:32;;;;;;;7.68;3.95;;;;;;;;;;4973380;28;20145;-77
2023/05/31 12:02:00;;;;;;;8.27;4.68;;;;;;;;;;4974086;28;20046;-77
2023/05/31 12:04:31;;;;;;;8.63;4.32;;;;;;;;;;4954372;29;20146;-77
2023/05/31 12:06:58;;;;;;;6.70;4.43;;;;;;;;;;4961674;28;20093;-76
2023/05/31 12:09:27;;;;;;;6.25;3.65;;;;;;;;;;4992824;28;20069;-77
2023/05/31 12:11:55;;;;;;;9.10;4.40;;;;;;;;;;4993444;28;20125;-76
2023/05/31 12:14:21;;;;;;;7.45;4.30;;;;;;;;;;4992782;28;20047;-77
2023/05/31 12:16:49;;;;;;;8.50;5.32;;;;;;;;;;4992845;28;20047;-76
2023/05/31 12:19:16;;;;;;;7.35;3.92;;;;;;;;;;4992704;28;20050;-76
2023/05/31 12:21:43;;;;;;;8.13;4.50;;;;;;;;;;4987342;28;20478;-78
2023/05/31 12:24:14;;;;;;;7.70;4.40;;;;;;;;;;4975641;28;20231;-77
2023/05/31 12:26:43;;;;;;;7.53;4.20;;;;;;;;;;4977550;28;20047;-77
2023/05/31 12:29:09;;;;;;;7.70;4.63;;;;;;;;;;4977256;28;20043;-77
2023/05/31 12:31:40;;;;;;;6.32;3.80;;;;;;;;;;5001901;23;20058;-76
2023/05/31 12:34:08;;;;;;;9.68;4.13;;;;;;;;;;5009435;28;20057;-76
2023/05/31 12:36:39;;;;;;;7.75;4.65;;;;;;;;;;5011520;28;20046;-76
2023/05/31 12:39:09;;;;;;;8.02;4.20;;;;;;;;;;4995012;28;20038;-76
2023/05/31 12:41:35;;;;;;;;;;;;;;;;;;4986314;28;20047;-76
2023/05/31 12:44:03;;;;;;;9.15;4.70;;;;;;;;;;4972473;28;19965;-75
2023/05/31 12:46:37;;;;;;;8.32;4.15;;;;;;;;;;4974167;28;20051;-76
2023/05/31 12:49:11;;;;;;;6.10;4.10;;;;;;;;;;4980168;28;20529;-76
2023/05/31 12:51:38;;;;;;;6.75;3.90;;;;;;;;;;4991178;28;20101;-77
2023/05/31 12:54:11;;;;;;;7.22;3.75;;;;;;;;;;4978253;28;20049;-76
2023/05/31 12:56:37;;;;;;;7.28;3.80;;;;;;;;;;4980045;28;20054;-76
2023/05/31 12:59:06;;;;;;;6.47;3.85;;;;;;;;;;4985400;28;20137;-76
2023/05/31 13:01:33;;;;;;;6.95;4.47;;;;;;;;;;4990760;28;20051;-76
2023/05/31 13:04:00;;;;;;;7.78;3.80;;;;;;;;;;4974927;28;20099;-76
2023/05/31 13:06:27;;;;;;;8.48;4.40;;;;;;;;;;4971571;28;20055;-76
2023/05/31 13:08:53;;;;;;;6.85;3.60;;;;;;;;;;4971809;28;20057;-76
2023/05/31 13:11:21;;;;;;;5.90;3.80;;;;;;;;;;4971148;28;20069;-76
2023/05/31 13:13:47;;;;;;;7.50;3.88;;;;;;;;;;4971542;28;20058;-76
2023/05/31 13:16:15;;;;;;;6.40;3.80;;;;;;;;;;4971319;28;20138;-76
2023/05/31 13:18:42;;;;;;;6.47;4.22;;;;;;;;;;4971218;28;20065;-76
2023/05/31 13:21:09;;;;;;;8.70;4.40;;;;;;;;;;4971354;28;20051;-76
2023/05/31 13:23:35;;;;;;;6.60;4.00;;;;;;;;;;4972001;28;20528;-76
2023/05/31 13:26:02;;;;;;;7.10;4.07;;;;;;;;;;4972289;28;20766;-76
2023/05/31 13:28:29;;;;;;;6.10;3.75;;;;;;;;;;4971951;28;20105;-76
2023/05/31 13:33:36;;;;;;;6.03;4.07;;;;;;;;;;5140349;27;20434;-61
2023/05/31 13:36:04;;;;;;;7.70;4.55;;;;;;;;;;5107624;28;20052;-61
2023/05/31 13:38:31;;;;;;;7.45;4.47;;;;;;;;;;5107804;28;20051;-59
2023/05/31 13:40:58;;;;;;;8.10;4.32;;;;;;;;;;5107335;28;20478;-60
2023/05/31 13:43:25;;;;;;;8.00;4.47;;;;;;;;;;5107607;28;20104;-58
2023/05/31 13:45:53;;;;;;;7.55;4.35;;;;;;;;;;5106694;28;20091;-57
2023/05/31 13:48:20;;;;;;;6.60;3.75;;;;;;;;;;5107018;28;20055;-58
2023/05/31 13:50:49;;;;;;;8.27;4.60;;;;;;;;;;5107178;28;20051;-58
2023/05/31 13:53:16;;;;;;;7.07;3.85;;;;;;;;;;5107073;28;20040;-59
2023/05/31 13:55:43;;;;;;;7.07;4.05;;;;;;;;;;5106939;28;20619;-60
2023/05/31 13:58:10;;;;;;;7.45;4.20;;;;;;;;;;5107155;28;20152;-60
2023/05/31 14:00:36;;;;;;;7.18;3.65;;;;;;;;;;5106862;28;20463;-58
2023/05/31 14:03:03;;;;;;;7.03;3.92;;;;;;;;;;5106933;28;20051;-60
2023/05/31 14:05:30;;;;;;;7.05;4.15;;;;;;;;;;5106995;28;20051;-60
2023/05/31 14:07:59;;;;;;;5.90;3.60;;;;;;;;;;5106817;28;20044;-59
2023/05/31 14:10:26;;;;;;;6.32;3.65;;;;;;;;;;5106536;28;20062;-60
2023/05/31 14:12:53;;;;;;;8.05;3.72;;;;;;;;;;5106382;28;20113;-64
2023/05/31 14:15:20;;;;;;;5.38;3.83;;;;;;;;;;5106156;28;20135;-66
2023/05/31 14:17:47;;;;;;;8.43;3.90;;;;;;;;;;5106920;28;20413;-60
2023/05/31 14:20:14;;;;;;;6.72;3.83;;;;;;;;;;5106646;28;20048;-60
2023/05/31 14:22:41;;;;;;;7.20;4.25;;;;;;;;;;5106830;28;20116;-61
2023/05/31 14:25:10;;;;;;;8.00;4.13;;;;;;;;;;5107033;28;20515;-61
2023/05/31 14:27:36;;;;;;;6.85;4.40;;;;;;;;;;5106847;28;20051;-61
2023/05/31 14:30:04;;;;;;;7.15;4.18;;;;;;;;;;5106883;28;20055;-61
2023/05/31 14:32:31;;;;;;;9.27;4.28;;;;;;;;;;5106506;28;20461;-61
2023/05/31 14:34:58;;;;;;;8.85;4.38;;;;;;;;;;5107132;28;20457;-61
2023/05/31 14:37:24;;;;;;;7.15;3.85;;;;;;;;;;5107289;28;20470;-60
2023/05/31 14:39:51;;;;;;;6.43;3.58;;;;;;;;;;5107732;28;20055;-61
2023/05/31 14:42:20;;;;;;;7.70;3.78;;;;;;;;;;5107250;28;20174;-60
2023/05/31 14:44:46;;;;;;;9.20;4.30;;;;;;;;;;5095244;28;20052;-60
2023/05/31 14:47:13;;;;;;;7.22;3.83;;;;;;;;;;5093988;28;20052;-61
2023/05/31 14:49:40;;;;;;;6.20;3.78;;;;;;;;;;5093145;28;20517;-61
2023/05/31 14:52:08;;;;;;;6.57;3.75;;;;;;;;;;5094005;28;20052;-61